sensor_id;sensor_type;location;lat;lon;timestamp;P1;durP1;ratioP1;P2;durP2;ratioP2
26600;SDS011;14241;49.260;10.496;2023-07-20T00:00:33;5.87;;;3.00;;
26600;SDS011;14241;49.260;10.496;2023-07-20T00:03:11;3.90;;;2.67;;
26600;SDS011;14241;49.260;10.496;2023-07-20T00:05:42;4.53;;;2.47;;
26600;SDS011;14241;49.260;10.496;2023-07-20T00:08:07;4.45;;;2.58;;
26600;SDS011;14241;49.260;10.496;2023-07-20T00:10:33;4.60;;;2.63;;
26600;SDS011;14241;49.260;10.496;2023-07-20T00:12:58;6.63;;;2.50;;
26600;SDS011;14241;49.260;10.496;2023-07-20T00:15:23;3.70;;;2.57;;
26600;SDS011;14241;49.260;10.496;2023-07-20T00:17:48;3.30;;;2.47;;
26600;SDS011;14241;49.260;10.496;2023-07-20T00:20:13;4.67;;;2.70;;
26600;SDS011;14241;49.260;10.496;2023-07-20T00:22:39;4.50;;;2.90;;
26600;SDS011;14241;49.260;10.496;2023-07-20T00:25:04;5.93;;;3.30;;
26600;SDS011;14241;49.260;10.496;2023-07-20T00:27:29;4.55;;;2.88;;
26600;SDS011;14241;49.260;10.496;2023-07-20T00:29:55;4.00;;;2.55;;
26600;SDS011;14241;49.260;10.496;2023-07-20T00:32:20;6.57;;;2.50;;
26600;SDS011;14241;49.260;10.496;2023-07-20T00:34:45;4.57;;;2.70;;
26600;SDS011;14241;49.260;10.496;2023-07-20T00:37:10;4.40;;;2.55;;
26600;SDS011;14241;49.260;10.496;2023-07-20T00:39:35;4.73;;;2.83;;
26600;SDS011;14241;49.260;10.496;2023-07-20T00:42:00;4.57;;;2.90;;
26600;SDS011;14241;49.260;10.496;2023-07-20T00:44:26;6.17;;;3.17;;
26600;SDS011;14241;49.260;10.496;2023-07-20T00:46:51;2.60;;;2.40;;
26600;SDS011;14241;49.260;10.496;2023-07-20T00:49:16;3.60;;;2.63;;
26600;SDS011;14241;49.260;10.496;2023-07-20T00:51:45;3.35;;;2.63;;
26600;SDS011;14241;49.260;10.496;2023-07-20T00:54:11;3.38;;;2.53;;
26600;SDS011;14241;49.260;10.496;2023-07-20T00:56:36;6.40;;;2.60;;
26600;SDS011;14241;49.260;10.496;2023-07-20T00:59:02;4.22;;;2.97;;
26600;SDS011;14241;49.260;10.496;2023-07-20T01:01:27;4.65;;;3.03;;
26600;SDS011;14241;49.260;10.496;2023-07-20T01:03:52;3.77;;;3.07;;
26600;SDS011;14241;49.260;10.496;2023-07-20T01:09:39;4.47;;;2.90;;
26600;SDS011;14241;49.260;10.496;2023-07-20T01:11:35;4.22;;;2.80;;
26600;SDS011;14241;49.260;10.496;2023-07-20T01:14:01;7.20;;;2.75;;
26600;SDS011;14241;49.260;10.496;2023-07-20T01:16:27;4.95;;;2.67;;
26600;SDS011;14241;49.260;10.496;2023-07-20T01:18:52;6.03;;;3.03;;
26600;SDS011;14241;49.260;10.496;2023-07-20T01:21:19;8.03;;;2.67;;
26600;SDS011;14241;49.260;10.496;2023-07-20T01:29:11;5.93;;;2.45;;
26600;SDS011;14241;49.260;10.496;2023-07-20T01:31:38;4.38;;;2.78;;
26600;SDS011;14241;49.260;10.496;2023-07-20T01:34:04;4.35;;;2.60;;
26600;SDS011;14241;49.260;10.496;2023-07-20T01:36:32;5.53;;;3.00;;
26600;SDS011;14241;49.260;10.496;2023-07-20T01:38:58;4.55;;;3.10;;
26600;SDS011;14241;49.260;10.496;2023-07-20T01:41:23;5.07;;;3.05;;
26600;SDS011;14241;49.260;10.496;2023-07-20T01:43:49;4.03;;;2.77;;
26600;SDS011;14241;49.260;10.496;2023-07-20T01:46:14;4.27;;;2.90;;
26600;SDS011;14241;49.260;10.496;2023-07-20T01:48:39;5.77;;;3.07;;
26600;SDS011;14241;49.260;10.496;2023-07-20T01:51:04;5.13;;;2.80;;
26600;SDS011;14241;49.260;10.496;2023-07-20T01:53:29;5.30;;;3.03;;
26600;SDS011;14241;49.260;10.496;2023-07-20T01:55:55;5.47;;;2.73;;
26600;SDS011;14241;49.260;10.496;2023-07-20T01:58:21;11.10;;;2.65;;
26600;SDS011;14241;49.260;10.496;2023-07-20T02:00:46;4.00;;;2.47;;
26600;SDS011;14241;49.260;10.496;2023-07-20T02:03:11;4.43;;;3.10;;
26600;SDS011;14241;49.260;10.496;2023-07-20T02:05:37;5.05;;;2.95;;
26600;SDS011;14241;49.260;10.496;2023-07-20T02:08:02;4.93;;;2.80;;
26600;SDS011;14241;49.260;10.496;2023-07-20T02:10:27;6.40;;;2.90;;
26600;SDS011;14241;49.260;10.496;2023-07-20T02:12:52;6.03;;;2.90;;
26600;SDS011;14241;49.260;10.496;2023-07-20T02:15:17;4.20;;;2.10;;
26600;SDS011;14241;49.260;10.496;2023-07-20T02:17:43;3.90;;;2.83;;
26600;SDS011;14241;49.260;10.496;2023-07-20T02:20:09;4.30;;;2.60;;
26600;SDS011;14241;49.260;10.496;2023-07-20T02:22:35;4.50;;;2.22;;
26600;SDS011;14241;49.260;10.496;2023-07-20T02:25:00;4.72;;;2.40;;
26600;SDS011;14241;49.260;10.496;2023-07-20T02:27:25;3.88;;;2.20;;
26600;SDS011;14241;49.260;10.496;2023-07-20T02:29:51;7.18;;;2.15;;
26600;SDS011;14241;49.260;10.496;2023-07-20T02:32:16;4.93;;;2.47;;
26600;SDS011;14241;49.260;10.496;2023-07-20T02:34:41;3.27;;;2.23;;
26600;SDS011;14241;49.260;10.496;2023-07-20T02:37:07;6.67;;;2.33;;
26600;SDS011;14241;49.260;10.496;2023-07-20T02:39:32;7.03;;;2.67;;
26600;SDS011;14241;49.260;10.496;2023-07-20T02:41:57;5.27;;;2.67;;
26600;SDS011;14241;49.260;10.496;2023-07-20T02:44:22;2.40;;;2.10;;
26600;SDS011;14241;49.260;10.496;2023-07-20T02:46:48;6.00;;;2.00;;
26600;SDS011;14241;49.260;10.496;2023-07-20T02:49:14;7.18;;;2.28;;
26600;SDS011;14241;49.260;10.496;2023-07-20T02:51:40;7.20;;;2.30;;
26600;SDS011;14241;49.260;10.496;2023-07-20T02:54:05;7.20;;;2.67;;
26600;SDS011;14241;49.260;10.496;2023-07-20T02:56:30;10.17;;;2.37;;
26600;SDS011;14241;49.260;10.496;2023-07-20T02:58:55;6.67;;;2.23;;
26600;SDS011;14241;49.260;10.496;2023-07-20T03:01:20;4.33;;;2.10;;
26600;SDS011;14241;49.260;10.496;2023-07-20T03:03:46;4.43;;;2.13;;
26600;SDS011;14241;49.260;10.496;2023-07-20T03:06:15;4.30;;;2.05;;
26600;SDS011;14241;49.260;10.496;2023-07-20T03:08:41;4.43;;;2.45;;
26600;SDS011;14241;49.260;10.496;2023-07-20T03:11:07;4.90;;;2.28;;
26600;SDS011;14241;49.260;10.496;2023-07-20T03:13:32;5.57;;;2.28;;
26600;SDS011;14241;49.260;10.496;2023-07-20T03:15:57;3.93;;;2.40;;
26600;SDS011;14241;49.260;10.496;2023-07-20T03:18:23;3.73;;;2.20;;
26600;SDS011;14241;49.260;10.496;2023-07-20T03:20:48;4.40;;;2.20;;
26600;SDS011;14241;49.260;10.496;2023-07-20T03:23:13;5.50;;;2.33;;
26600;SDS011;14241;49.260;10.496;2023-07-20T03:25:38;4.50;;;2.03;;
26600;SDS011;14241;49.260;10.496;2023-07-20T03:28:04;4.80;;;2.23;;
26600;SDS011;14241;49.260;10.496;2023-07-20T03:30:29;4.63;;;2.53;;
26600;SDS011;14241;49.260;10.496;2023-07-20T03:32:54;3.33;;;2.10;;
26600;SDS011;14241;49.260;10.496;2023-07-20T03:35:19;5.13;;;2.73;;
26600;SDS011;14241;49.260;10.496;2023-07-20T03:37:44;7.43;;;2.57;;
26600;SDS011;14241;49.260;10.496;2023-07-20T03:40:10;4.20;;;2.20;;
26600;SDS011;14241;49.260;10.496;2023-07-20T03:42:35;4.70;;;2.38;;
26600;SDS011;14241;49.260;10.496;2023-07-20T03:45:01;7.60;;;2.22;;
26600;SDS011;14241;49.260;10.496;2023-07-20T03:47:27;4.63;;;2.42;;
26600;SDS011;14241;49.260;10.496;2023-07-20T03:49:53;5.23;;;2.30;;
26600;SDS011;14241;49.260;10.496;2023-07-20T03:52:18;3.13;;;2.20;;
26600;SDS011;14241;49.260;10.496;2023-07-20T03:54:43;5.03;;;2.17;;
26600;SDS011;14241;49.260;10.496;2023-07-20T03:57:09;4.75;;;2.20;;
26600;SDS011;14241;49.260;10.496;2023-07-20T03:59:34;3.33;;;2.03;;
26600;SDS011;14241;49.260;10.496;2023-07-20T04:01:59;6.28;;;2.20;;
26600;SDS011;14241;49.260;10.496;2023-07-20T04:04:25;4.90;;;2.13;;
26600;SDS011;14241;49.260;10.496;2023-07-20T04:06:50;4.67;;;2.23;;
26600;SDS011;14241;49.260;10.496;2023-07-20T04:09:15;6.80;;;2.67;;
26600;SDS011;14241;49.260;10.496;2023-07-20T04:11:40;6.83;;;2.40;;
26600;SDS011;14241;49.260;10.496;2023-07-20T04:14:05;6.40;;;2.40;;
26600;SDS011;14241;49.260;10.496;2023-07-20T04:16:31;4.37;;;2.37;;
26600;SDS011;14241;49.260;10.496;2023-07-20T04:18:56;3.42;;;2.38;;
26600;SDS011;14241;49.260;10.496;2023-07-20T04:21:21;6.68;;;2.22;;
26600;SDS011;14241;49.260;10.496;2023-07-20T04:23:47;6.75;;;2.40;;
26600;SDS011;14241;49.260;10.496;2023-07-20T04:26:12;9.47;;;2.63;;
26600;SDS011;14241;49.260;10.496;2023-07-20T04:28:37;5.22;;;2.50;;
26600;SDS011;14241;49.260;10.496;2023-07-20T04:31:09;4.22;;;2.30;;
26600;SDS011;14241;49.260;10.496;2023-07-20T04:33:36;4.43;;;2.53;;
26600;SDS011;14241;49.260;10.496;2023-07-20T04:36:01;10.67;;;2.60;;
26600;SDS011;14241;49.260;10.496;2023-07-20T04:38:26;7.13;;;2.67;;
26600;SDS011;14241;49.260;10.496;2023-07-20T04:40:51;10.57;;;3.03;;
26600;SDS011;14241;49.260;10.496;2023-07-20T04:43:17;3.67;;;2.20;;
26600;SDS011;14241;49.260;10.496;2023-07-20T04:45:42;7.35;;;2.40;;
26600;SDS011;14241;49.260;10.496;2023-07-20T04:48:11;16.93;;;3.30;;
26600;SDS011;14241;49.260;10.496;2023-07-20T04:50:37;6.05;;;2.42;;
26600;SDS011;14241;49.260;10.496;2023-07-20T04:53:02;5.95;;;2.80;;
26600;SDS011;14241;49.260;10.496;2023-07-20T04:55:28;7.93;;;2.65;;
26600;SDS011;14241;49.260;10.496;2023-07-20T04:57:53;6.45;;;2.38;;
26600;SDS011;14241;49.260;10.496;2023-07-20T05:00:18;6.22;;;2.35;;
26600;SDS011;14241;49.260;10.496;2023-07-20T05:02:44;8.20;;;2.55;;
26600;SDS011;14241;49.260;10.496;2023-07-20T05:05:09;5.47;;;2.67;;
26600;SDS011;14241;49.260;10.496;2023-07-20T05:07:35;5.80;;;2.27;;
26600;SDS011;14241;49.260;10.496;2023-07-20T05:10:00;9.97;;;2.73;;
26600;SDS011;14241;49.260;10.496;2023-07-20T05:12:25;8.63;;;3.22;;
26600;SDS011;14241;49.260;10.496;2023-07-20T05:14:50;11.33;;;2.63;;
26600;SDS011;14241;49.260;10.496;2023-07-20T05:17:16;9.80;;;2.70;;
26600;SDS011;14241;49.260;10.496;2023-07-20T05:19:41;7.33;;;2.70;;
26600;SDS011;14241;49.260;10.496;2023-07-20T05:22:06;5.63;;;2.40;;
26600;SDS011;14241;49.260;10.496;2023-07-20T05:24:31;9.20;;;2.80;;
26600;SDS011;14241;49.260;10.496;2023-07-20T05:26:57;6.78;;;2.88;;
26600;SDS011;14241;49.260;10.496;2023-07-20T05:29:23;11.88;;;3.03;;
26600;SDS011;14241;49.260;10.496;2023-07-20T05:31:48;8.60;;;2.33;;
26600;SDS011;14241;49.260;10.496;2023-07-20T05:34:13;9.10;;;3.10;;
26600;SDS011;14241;49.260;10.496;2023-07-20T05:39:35;9.67;;;2.93;;
26600;SDS011;14241;49.260;10.496;2023-07-20T05:42:00;5.10;;;2.75;;
26600;SDS011;14241;49.260;10.496;2023-07-20T05:44:25;6.50;;;2.70;;
26600;SDS011;14241;49.260;10.496;2023-07-20T05:46:51;12.40;;;3.07;;
26600;SDS011;14241;49.260;10.496;2023-07-20T05:49:16;7.93;;;3.00;;
26600;SDS011;14241;49.260;10.496;2023-07-20T05:51:41;7.93;;;3.13;;
26600;SDS011;14241;49.260;10.496;2023-07-20T05:54:06;5.20;;;2.63;;
26600;SDS011;14241;49.260;10.496;2023-07-20T05:56:31;5.70;;;2.67;;
26600;SDS011;14241;49.260;10.496;2023-07-20T05:58:56;6.35;;;2.88;;
26600;SDS011;14241;49.260;10.496;2023-07-20T06:01:22;7.20;;;2.70;;
26600;SDS011;14241;49.260;10.496;2023-07-20T06:03:47;6.20;;;2.27;;
26600;SDS011;14241;49.260;10.496;2023-07-20T06:06:12;6.13;;;3.10;;
26600;SDS011;14241;49.260;10.496;2023-07-20T06:08:37;7.82;;;2.67;;
26600;SDS011;14241;49.260;10.496;2023-07-20T06:11:03;6.93;;;2.42;;
26600;SDS011;14241;49.260;10.496;2023-07-20T06:13:28;4.90;;;2.67;;
26600;SDS011;14241;49.260;10.496;2023-07-20T06:15:53;8.40;;;2.60;;
26600;SDS011;14241;49.260;10.496;2023-07-20T06:18:18;4.67;;;2.03;;
26600;SDS011;14241;49.260;10.496;2023-07-20T06:20:49;3.38;;;2.17;;
26600;SDS011;14241;49.260;10.496;2023-07-20T06:23:15;5.80;;;2.58;;
26600;SDS011;14241;49.260;10.496;2023-07-20T06:25:40;5.37;;;2.10;;
26600;SDS011;14241;49.260;10.496;2023-07-20T06:28:05;3.47;;;2.27;;
26600;SDS011;14241;49.260;10.496;2023-07-20T06:30:31;5.53;;;2.47;;
26600;SDS011;14241;49.260;10.496;2023-07-20T06:32:58;6.15;;;2.70;;
26600;SDS011;14241;49.260;10.496;2023-07-20T06:35:25;3.60;;;2.22;;
26600;SDS011;14241;49.260;10.496;2023-07-20T06:37:50;5.10;;;2.73;;
26600;SDS011;14241;49.260;10.496;2023-07-20T06:40:15;3.13;;;2.20;;
26600;SDS011;14241;49.260;10.496;2023-07-20T06:42:40;5.60;;;2.33;;
26600;SDS011;14241;49.260;10.496;2023-07-20T06:45:05;3.57;;;2.20;;
26600;SDS011;14241;49.260;10.496;2023-07-20T06:47:31;7.78;;;2.40;;
26600;SDS011;14241;49.260;10.496;2023-07-20T06:49:56;6.60;;;2.67;;
26600;SDS011;14241;49.260;10.496;2023-07-20T06:52:21;4.03;;;2.37;;
26600;SDS011;14241;49.260;10.496;2023-07-20T06:54:46;3.70;;;2.30;;
26600;SDS011;14241;49.260;10.496;2023-07-20T06:57:11;5.07;;;2.43;;
26600;SDS011;14241;49.260;10.496;2023-07-20T06:59:37;4.78;;;2.28;;
26600;SDS011;14241;49.260;10.496;2023-07-20T07:02:02;7.45;;;2.20;;
26600;SDS011;14241;49.260;10.496;2023-07-20T07:04:27;3.90;;;2.17;;
26600;SDS011;14241;49.260;10.496;2023-07-20T07:06:53;8.35;;;2.08;;
26600;SDS011;14241;49.260;10.496;2023-07-20T07:09:18;6.30;;;2.10;;
26600;SDS011;14241;49.260;10.496;2023-07-20T07:11:43;4.00;;;2.00;;
26600;SDS011;14241;49.260;10.496;2023-07-20T07:14:09;6.20;;;2.50;;
26600;SDS011;14241;49.260;10.496;2023-07-20T07:16:35;3.67;;;2.10;;
26600;SDS011;14241;49.260;10.496;2023-07-20T07:19:00;4.97;;;1.90;;
26600;SDS011;14241;49.260;10.496;2023-07-20T07:21:25;2.70;;;2.03;;
26600;SDS011;14241;49.260;10.496;2023-07-20T07:23:50;4.47;;;2.10;;
26600;SDS011;14241;49.260;10.496;2023-07-20T07:26:18;4.30;;;2.33;;
26600;SDS011;14241;49.260;10.496;2023-07-20T07:28:43;4.00;;;2.33;;
26600;SDS011;14241;49.260;10.496;2023-07-20T07:31:08;3.33;;;2.20;;
26600;SDS011;14241;49.260;10.496;2023-07-20T07:33:34;3.63;;;2.38;;
26600;SDS011;14241;49.260;10.496;2023-07-20T07:36:00;3.72;;;2.42;;
26600;SDS011;14241;49.260;10.496;2023-07-20T07:38:25;5.07;;;2.13;;
26600;SDS011;14241;49.260;10.496;2023-07-20T07:40:50;5.47;;;2.47;;
26600;SDS011;14241;49.260;10.496;2023-07-20T07:43:15;6.43;;;2.20;;
26600;SDS011;14241;49.260;10.496;2023-07-20T07:45:41;5.68;;;2.50;;
26600;SDS011;14241;49.260;10.496;2023-07-20T07:48:06;3.55;;;1.77;;
26600;SDS011;14241;49.260;10.496;2023-07-20T07:50:32;4.25;;;1.83;;
26600;SDS011;14241;49.260;10.496;2023-07-20T07:52:57;4.25;;;2.08;;
26600;SDS011;14241;49.260;10.496;2023-07-20T07:55:22;3.83;;;2.00;;
26600;SDS011;14241;49.260;10.496;2023-07-20T07:57:47;5.13;;;2.00;;
26600;SDS011;14241;49.260;10.496;2023-07-20T08:00:13;7.43;;;2.53;;
26600;SDS011;14241;49.260;10.496;2023-07-20T08:02:40;2.25;;;2.00;;
26600;SDS011;14241;49.260;10.496;2023-07-20T08:05:06;4.43;;;2.00;;
26600;SDS011;14241;49.260;10.496;2023-07-20T08:07:31;4.72;;;2.10;;
26600;SDS011;14241;49.260;10.496;2023-07-20T08:09:56;3.87;;;2.10;;
26600;SDS011;14241;49.260;10.496;2023-07-20T08:12:21;5.00;;;2.30;;
26600;SDS011;14241;49.260;10.496;2023-07-20T08:14:47;4.15;;;2.03;;
26600;SDS011;14241;49.260;10.496;2023-07-20T08:17:13;3.40;;;2.05;;
26600;SDS011;14241;49.260;10.496;2023-07-20T08:19:38;6.03;;;2.40;;
26600;SDS011;14241;49.260;10.496;2023-07-20T08:22:06;3.72;;;1.70;;
26600;SDS011;14241;49.260;10.496;2023-07-20T08:24:31;2.87;;;1.80;;
26600;SDS011;14241;49.260;10.496;2023-07-20T08:26:57;7.25;;;2.30;;
26600;SDS011;14241;49.260;10.496;2023-07-20T08:29:23;3.03;;;1.87;;
26600;SDS011;14241;49.260;10.496;2023-07-20T08:31:48;4.53;;;1.77;;
26600;SDS011;14241;49.260;10.496;2023-07-20T08:34:14;6.37;;;1.80;;
26600;SDS011;14241;49.260;10.496;2023-07-20T08:36:39;3.58;;;2.08;;
26600;SDS011;14241;49.260;10.496;2023-07-20T08:39:04;5.20;;;1.80;;
26600;SDS011;14241;49.260;10.496;2023-07-20T08:41:29;3.67;;;2.00;;
26600;SDS011;14241;49.260;10.496;2023-07-20T08:43:54;3.07;;;1.80;;
26600;SDS011;14241;49.260;10.496;2023-07-20T08:46:20;4.03;;;2.10;;
26600;SDS011;14241;49.260;10.496;2023-07-20T08:48:45;2.15;;;1.48;;
26600;SDS011;14241;49.260;10.496;2023-07-20T08:51:10;3.87;;;1.50;;
26600;SDS011;14241;49.260;10.496;2023-07-20T08:53:36;3.30;;;1.70;;
26600;SDS011;14241;49.260;10.496;2023-07-20T08:56:01;3.50;;;1.42;;
26600;SDS011;14241;49.260;10.496;2023-07-20T08:58:27;3.63;;;1.50;;
26600;SDS011;14241;49.260;10.496;2023-07-20T09:00:53;1.77;;;1.05;;
26600;SDS011;14241;49.260;10.496;2023-07-20T09:03:19;6.95;;;1.60;;
26600;SDS011;14241;49.260;10.496;2023-07-20T09:05:44;4.22;;;1.25;;
26600;SDS011;14241;49.260;10.496;2023-07-20T09:08:09;2.97;;;1.10;;
26600;SDS011;14241;49.260;10.496;2023-07-20T09:10:34;2.93;;;1.30;;
26600;SDS011;14241;49.260;10.496;2023-07-20T09:13:00;1.50;;;1.20;;
26600;SDS011;14241;49.260;10.496;2023-07-20T09:15:25;2.53;;;1.23;;
26600;SDS011;14241;49.260;10.496;2023-07-20T09:17:50;1.60;;;1.00;;
26600;SDS011;14241;49.260;10.496;2023-07-20T09:20:16;3.97;;;1.00;;
26600;SDS011;14241;49.260;10.496;2023-07-20T09:22:42;2.72;;;1.30;;
26600;SDS011;14241;49.260;10.496;2023-07-20T09:25:10;2.30;;;1.27;;
26600;SDS011;14241;49.260;10.496;2023-07-20T09:27:39;1.38;;;1.00;;
26600;SDS011;14241;49.260;10.496;2023-07-20T09:30:05;2.20;;;1.20;;
26600;SDS011;14241;49.260;10.496;2023-07-20T09:32:34;2.17;;;1.30;;
26600;SDS011;14241;49.260;10.496;2023-07-20T09:35:02;2.78;;;1.25;;
26600;SDS011;14241;49.260;10.496;2023-07-20T09:37:28;4.38;;;1.30;;
26600;SDS011;14241;49.260;10.496;2023-07-20T09:39:53;4.10;;;1.40;;
26600;SDS011;14241;49.260;10.496;2023-07-20T09:42:18;3.75;;;1.00;;
26600;SDS011;14241;49.260;10.496;2023-07-20T09:44:45;2.58;;;1.10;;
26600;SDS011;14241;49.260;10.496;2023-07-20T09:47:11;2.92;;;1.00;;
26600;SDS011;14241;49.260;10.496;2023-07-20T09:49:40;1.35;;;1.00;;
26600;SDS011;14241;49.260;10.496;2023-07-20T09:52:06;1.58;;;0.93;;
26600;SDS011;14241;49.260;10.496;2023-07-20T09:54:31;3.10;;;1.10;;
26600;SDS011;14241;49.260;10.496;2023-07-20T09:56:57;2.55;;;1.15;;
26600;SDS011;14241;49.260;10.496;2023-07-20T09:59:23;2.83;;;1.00;;
26600;SDS011;14241;49.260;10.496;2023-07-20T10:01:48;2.30;;;0.95;;
26600;SDS011;14241;49.260;10.496;2023-07-20T10:04:14;4.75;;;1.33;;
26600;SDS011;14241;49.260;10.496;2023-07-20T10:06:42;2.75;;;0.93;;
26600;SDS011;14241;49.260;10.496;2023-07-20T10:09:07;2.17;;;1.10;;
26600;SDS011;14241;49.260;10.496;2023-07-20T10:11:35;2.53;;;1.17;;
26600;SDS011;14241;49.260;10.496;2023-07-20T10:14:00;3.40;;;1.40;;
26600;SDS011;14241;49.260;10.496;2023-07-20T10:16:29;3.25;;;1.35;;
26600;SDS011;14241;49.260;10.496;2023-07-20T10:21:22;2.55;;;1.17;;
26600;SDS011;14241;49.260;10.496;2023-07-20T10:23:48;1.45;;;0.80;;
26600;SDS011;14241;49.260;10.496;2023-07-20T10:26:13;1.52;;;0.95;;
26600;SDS011;14241;49.260;10.496;2023-07-20T10:28:38;1.97;;;0.97;;
26600;SDS011;14241;49.260;10.496;2023-07-20T10:31:05;3.05;;;0.98;;
26600;SDS011;14241;49.260;10.496;2023-07-20T10:33:30;1.98;;;1.10;;
26600;SDS011;14241;49.260;10.496;2023-07-20T10:36:05;2.35;;;1.10;;
26600;SDS011;14241;49.260;10.496;2023-07-20T10:41:21;3.42;;;0.90;;
26600;SDS011;14241;49.260;10.496;2023-07-20T10:46:12;2.60;;;1.15;;
26600;SDS011;14241;49.260;10.496;2023-07-20T10:49:02;1.50;;;1.05;;
26600;SDS011;14241;49.260;10.496;2023-07-20T10:51:28;2.97;;;0.90;;
26600;SDS011;14241;49.260;10.496;2023-07-20T10:53:54;1.33;;;0.90;;
26600;SDS011;14241;49.260;10.496;2023-07-20T10:56:22;4.50;;;1.40;;
26600;SDS011;14241;49.260;10.496;2023-07-20T10:58:47;1.92;;;0.90;;
26600;SDS011;14241;49.260;10.496;2023-07-20T11:01:13;3.50;;;1.03;;
26600;SDS011;14241;49.260;10.496;2023-07-20T11:03:38;3.45;;;1.30;;
26600;SDS011;14241;49.260;10.496;2023-07-20T11:08:48;1.83;;;1.08;;
26600;SDS011;14241;49.260;10.496;2023-07-20T11:11:29;1.42;;;0.93;;
26600;SDS011;14241;49.260;10.496;2023-07-20T11:16:31;2.35;;;1.20;;
26600;SDS011;14241;49.260;10.496;2023-07-20T11:21:22;4.78;;;1.83;;
26600;SDS011;14241;49.260;10.496;2023-07-20T11:23:47;2.67;;;1.30;;
26600;SDS011;14241;49.260;10.496;2023-07-20T11:26:13;1.45;;;0.95;;
26600;SDS011;14241;49.260;10.496;2023-07-20T11:28:38;4.95;;;1.70;;
26600;SDS011;14241;49.260;10.496;2023-07-20T11:31:03;3.00;;;1.17;;
26600;SDS011;14241;49.260;10.496;2023-07-20T11:33:29;2.60;;;1.30;;
26600;SDS011;14241;49.260;10.496;2023-07-20T11:35:54;3.33;;;1.35;;
26600;SDS011;14241;49.260;10.496;2023-07-20T11:38:19;2.13;;;1.23;;
26600;SDS011;14241;49.260;10.496;2023-07-20T11:40:45;3.30;;;1.27;;
26600;SDS011;14241;49.260;10.496;2023-07-20T11:43:11;3.30;;;1.05;;
26600;SDS011;14241;49.260;10.496;2023-07-20T11:45:37;2.55;;;1.00;;
26600;SDS011;14241;49.260;10.496;2023-07-20T11:48:02;1.75;;;1.17;;
26600;SDS011;14241;49.260;10.496;2023-07-20T11:50:27;1.43;;;1.13;;
26600;SDS011;14241;49.260;10.496;2023-07-20T11:52:53;1.27;;;0.98;;
26600;SDS011;14241;49.260;10.496;2023-07-20T11:55:19;2.03;;;1.10;;
26600;SDS011;14241;49.260;10.496;2023-07-20T11:58:00;1.87;;;0.97;;
26600;SDS011;14241;49.260;10.496;2023-07-20T12:00:25;0.93;;;0.82;;
26600;SDS011;14241;49.260;10.496;2023-07-20T12:02:52;5.00;;;1.87;;
26600;SDS011;14241;49.260;10.496;2023-07-20T12:05:18;3.28;;;1.10;;
26600;SDS011;14241;49.260;10.496;2023-07-20T12:07:44;2.30;;;1.05;;
26600;SDS011;14241;49.260;10.496;2023-07-20T12:10:12;1.67;;;1.00;;
26600;SDS011;14241;49.260;10.496;2023-07-20T12:12:37;1.08;;;0.80;;
26600;SDS011;14241;49.260;10.496;2023-07-20T12:15:13;1.83;;;0.90;;
26600;SDS011;14241;49.260;10.496;2023-07-20T12:17:46;5.20;;;0.95;;
26600;SDS011;14241;49.260;10.496;2023-07-20T12:20:11;2.95;;;1.10;;
26600;SDS011;14241;49.260;10.496;2023-07-20T12:22:40;1.42;;;0.90;;
26600;SDS011;14241;49.260;10.496;2023-07-20T12:25:06;3.28;;;0.93;;
26600;SDS011;14241;49.260;10.496;2023-07-20T12:27:32;2.88;;;0.93;;
26600;SDS011;14241;49.260;10.496;2023-07-20T12:29:57;1.17;;;0.70;;
26600;SDS011;14241;49.260;10.496;2023-07-20T12:32:22;3.63;;;1.35;;
26600;SDS011;14241;49.260;10.496;2023-07-20T12:34:47;2.00;;;1.03;;
26600;SDS011;14241;49.260;10.496;2023-07-20T12:37:13;1.80;;;0.90;;
26600;SDS011;14241;49.260;10.496;2023-07-20T12:39:38;2.00;;;1.20;;
26600;SDS011;14241;49.260;10.496;2023-07-20T12:42:04;2.22;;;0.85;;
26600;SDS011;14241;49.260;10.496;2023-07-20T12:44:29;2.25;;;1.30;;
26600;SDS011;14241;49.260;10.496;2023-07-20T12:46:55;2.00;;;1.00;;
26600;SDS011;14241;49.260;10.496;2023-07-20T12:49:20;4.03;;;1.13;;
26600;SDS011;14241;49.260;10.496;2023-07-20T12:51:45;1.47;;;0.70;;
26600;SDS011;14241;49.260;10.496;2023-07-20T12:54:10;2.73;;;1.10;;
26600;SDS011;14241;49.260;10.496;2023-07-20T12:56:35;2.83;;;1.10;;
26600;SDS011;14241;49.260;10.496;2023-07-20T12:59:01;4.55;;;1.10;;
26600;SDS011;14241;49.260;10.496;2023-07-20T13:01:28;3.03;;;1.08;;
26600;SDS011;14241;49.260;10.496;2023-07-20T13:03:53;1.58;;;1.00;;
26600;SDS011;14241;49.260;10.496;2023-07-20T13:06:19;5.55;;;1.10;;
26600;SDS011;14241;49.260;10.496;2023-07-20T13:08:45;1.38;;;1.05;;
26600;SDS011;14241;49.260;10.496;2023-07-20T13:11:10;1.20;;;0.80;;
26600;SDS011;14241;49.260;10.496;2023-07-20T13:13:35;2.00;;;1.10;;
26600;SDS011;14241;49.260;10.496;2023-07-20T13:16:00;1.53;;;0.93;;
26600;SDS011;14241;49.260;10.496;2023-07-20T13:18:25;1.20;;;1.00;;
26600;SDS011;14241;49.260;10.496;2023-07-20T13:20:50;1.97;;;1.20;;
26600;SDS011;14241;49.260;10.496;2023-07-20T13:23:15;0.97;;;0.70;;
26600;SDS011;14241;49.260;10.496;2023-07-20T13:25:41;2.37;;;0.87;;
26600;SDS011;14241;49.260;10.496;2023-07-20T13:28:07;2.38;;;1.05;;
26600;SDS011;14241;49.260;10.496;2023-07-20T13:30:32;1.73;;;1.13;;
26600;SDS011;14241;49.260;10.496;2023-07-20T13:32:58;2.65;;;1.15;;
26600;SDS011;14241;49.260;10.496;2023-07-20T13:35:23;1.50;;;0.93;;
26600;SDS011;14241;49.260;10.496;2023-07-20T13:37:48;1.97;;;1.00;;
26600;SDS011;14241;49.260;10.496;2023-07-20T13:40:15;2.13;;;1.00;;
26600;SDS011;14241;49.260;10.496;2023-07-20T13:42:41;2.70;;;1.13;;
26600;SDS011;14241;49.260;10.496;2023-07-20T13:45:07;3.03;;;0.87;;
26600;SDS011;14241;49.260;10.496;2023-07-20T13:47:34;1.85;;;1.00;;
26600;SDS011;14241;49.260;10.496;2023-07-20T13:49:59;2.40;;;0.90;;
26600;SDS011;14241;49.260;10.496;2023-07-20T13:52:24;3.13;;;1.13;;
26600;SDS011;14241;49.260;10.496;2023-07-20T13:54:49;1.50;;;0.87;;
26600;SDS011;14241;49.260;10.496;2023-07-20T13:57:14;2.27;;;0.83;;
26600;SDS011;14241;49.260;10.496;2023-07-20T13:59:40;4.88;;;0.95;;
26600;SDS011;14241;49.260;10.496;2023-07-20T14:02:05;5.35;;;0.70;;
26600;SDS011;14241;49.260;10.496;2023-07-20T14:04:30;2.00;;;1.10;;
26600;SDS011;14241;49.260;10.496;2023-07-20T14:06:56;1.53;;;0.77;;
26600;SDS011;14241;49.260;10.496;2023-07-20T14:09:21;1.53;;;0.90;;
26600;SDS011;14241;49.260;10.496;2023-07-20T14:11:46;3.87;;;1.40;;
26600;SDS011;14241;49.260;10.496;2023-07-20T14:14:11;1.10;;;0.77;;
26600;SDS011;14241;49.260;10.496;2023-07-20T14:16:37;2.83;;;1.15;;
26600;SDS011;14241;49.260;10.496;2023-07-20T14:19:02;1.33;;;0.97;;
26600;SDS011;14241;49.260;10.496;2023-07-20T14:21:29;2.00;;;0.95;;
26600;SDS011;14241;49.260;10.496;2023-07-20T14:23:56;2.10;;;0.90;;
26600;SDS011;14241;49.260;10.496;2023-07-20T14:26:22;5.32;;;1.00;;
26600;SDS011;14241;49.260;10.496;2023-07-20T14:28:47;1.33;;;0.87;;
26600;SDS011;14241;49.260;10.496;2023-07-20T14:31:13;1.33;;;0.80;;
26600;SDS011;14241;49.260;10.496;2023-07-20T14:33:38;1.38;;;1.05;;
26600;SDS011;14241;49.260;10.496;2023-07-20T14:36:04;1.92;;;0.88;;
26600;SDS011;14241;49.260;10.496;2023-07-20T14:38:30;2.72;;;1.10;;
26600;SDS011;14241;49.260;10.496;2023-07-20T14:40:55;3.10;;;1.20;;
26600;SDS011;14241;49.260;10.496;2023-07-20T14:43:21;4.13;;;1.27;;
26600;SDS011;14241;49.260;10.496;2023-07-20T14:45:46;3.03;;;1.00;;
26600;SDS011;14241;49.260;10.496;2023-07-20T14:48:11;1.98;;;1.23;;
26600;SDS011;14241;49.260;10.496;2023-07-20T14:50:36;1.65;;;0.90;;